sensor_id;sensor_type;location;lat;lon;timestamp;temperature;humidity
58469;DHT22;44257;44.804;10.220;2022-11-11T00:02:39;11.40;99.90
58469;DHT22;44257;44.804;10.220;2022-11-11T00:05:25;11.40;99.90
58469;DHT22;44257;44.804;10.220;2022-11-11T00:08:09;11.40;99.90
58469;DHT22;44257;44.804;10.220;2022-11-11T00:11:09;11.40;99.90
58469;DHT22;44257;44.804;10.220;2022-11-11T00:13:53;11.40;99.90
58469;DHT22;44257;44.804;10.220;2022-11-11T00:16:38;11.40;99.90
58469;DHT22;44257;44.804;10.220;2022-11-11T00:19:41;11.40;99.90
58469;DHT22;44257;44.804;10.220;2022-11-11T00:22:44;11.50;99.90
58469;DHT22;44257;44.804;10.220;2022-11-11T00:26:00;11.50;99.90
58469;DHT22;44257;44.804;10.220;2022-11-11T00:28:44;11.50;99.90
58469;DHT22;44257;44.804;10.220;2022-11-11T00:31:29;11.60;99.90
58469;DHT22;44257;44.804;10.220;2022-11-11T00:34:13;11.60;99.90
58469;DHT22;44257;44.804;10.220;2022-11-11T00:36:58;11.60;99.90
58469;DHT22;44257;44.804;10.220;2022-11-11T00:39:42;11.60;99.90
58469;DHT22;44257;44.804;10.220;2022-11-11T00:42:28;11.70;99.90
58469;DHT22;44257;44.804;10.220;2022-11-11T00:45:13;11.70;99.90
58469;DHT22;44257;44.804;10.220;2022-11-11T00:47:57;11.70;99.90
58469;DHT22;44257;44.804;10.220;2022-11-11T00:51:03;11.70;99.90
58469;DHT22;44257;44.804;10.220;2022-11-11T00:53:48;11.70;99.90
58469;DHT22;44257;44.804;10.220;2022-11-11T00:56:32;11.70;99.90
58469;DHT22;44257;44.804;10.220;2022-11-11T00:59:19;11.70;99.90
58469;DHT22;44257;44.804;10.220;2022-11-11T01:02:03;11.70;99.90
58469;DHT22;44257;44.804;10.220;2022-11-11T01:04:48;11.70;99.90
58469;DHT22;44257;44.804;10.220;2022-11-11T01:07:32;11.70;99.90
58469;DHT22;44257;44.804;10.220;2022-11-11T01:10:20;11.70;99.90
58469;DHT22;44257;44.804;10.220;2022-11-11T01:13:30;11.70;99.90
58469;DHT22;44257;44.804;10.220;2022-11-11T01:16:22;11.70;99.90
58469;DHT22;44257;44.804;10.220;2022-11-11T01:19:07;11.70;99.90
58469;DHT22;44257;44.804;10.220;2022-11-11T01:21:52;11.70;99.90
58469;DHT22;44257;44.804;10.220;2022-11-11T01:24:37;11.70;99.90
58469;DHT22;44257;44.804;10.220;2022-11-11T01:27:22;11.70;99.90
58469;DHT22;44257;44.804;10.220;2022-11-11T01:30:07;11.70;99.90
58469;DHT22;44257;44.804;10.220;2022-11-11T01:32:51;11.70;99.90
58469;DHT22;44257;44.804;10.220;2022-11-11T01:35:40;11.80;99.90
58469;DHT22;44257;44.804;10.220;2022-11-11T01:38:25;11.80;99.90
58469;DHT22;44257;44.804;10.220;2022-11-11T01:41:15;11.80;99.90
58469;DHT22;44257;44.804;10.220;2022-11-11T01:44:39;11.80;99.90
58469;DHT22;44257;44.804;10.220;2022-11-11T01:47:24;11.80;99.90
58469;DHT22;44257;44.804;10.220;2022-11-11T01:50:28;11.90;99.90
58469;DHT22;44257;44.804;10.220;2022-11-11T01:53:13;11.90;99.90
58469;DHT22;44257;44.804;10.220;2022-11-11T01:55:59;11.90;99.90
58469;DHT22;44257;44.804;10.220;2022-11-11T01:58:44;12.00;99.90
58469;DHT22;44257;44.804;10.220;2022-11-11T02:01:29;12.00;99.90
58469;DHT22;44257;44.804;10.220;2022-11-11T02:04:13;12.00;99.90
58469;DHT22;44257;44.804;10.220;2022-11-11T02:10:07;12.00;99.90
58469;DHT22;44257;44.804;10.220;2022-11-11T02:12:52;12.00;99.90
58469;DHT22;44257;44.804;10.220;2022-11-11T02:15:55;12.00;99.90
58469;DHT22;44257;44.804;10.220;2022-11-11T02:18:40;12.00;99.90
58469;DHT22;44257;44.804;10.220;2022-11-11T02:21:42;12.00;99.90
58469;DHT22;44257;44.804;10.220;2022-11-11T02:24:29;11.90;99.90
58469;DHT22;44257;44.804;10.220;2022-11-11T02:27:16;11.90;99.90
58469;DHT22;44257;44.804;10.220;2022-11-11T02:30:04;11.90;99.90
58469;DHT22;44257;44.804;10.220;2022-11-11T02:32:51;12.00;99.90
58469;DHT22;44257;44.804;10.220;2022-11-11T02:35:38;12.00;99.90
58469;DHT22;44257;44.804;10.220;2022-11-11T02:38:24;12.00;99.90
58469;DHT22;44257;44.804;10.220;2022-11-11T02:41:09;12.00;99.90
58469;DHT22;44257;44.804;10.220;2022-11-11T02:44:12;12.00;99.90
58469;DHT22;44257;44.804;10.220;2022-11-11T02:46:57;11.90;99.90
58469;DHT22;44257;44.804;10.220;2022-11-11T02:49:41;12.00;99.90
58469;DHT22;44257;44.804;10.220;2022-11-11T02:52:26;12.00;99.90
58469;DHT22;44257;44.804;10.220;2022-11-11T02:55:11;12.00;99.90
58469;DHT22;44257;44.804;10.220;2022-11-11T02:57:55;12.00;99.90
58469;DHT22;44257;44.804;10.220;2022-11-11T03:00:39;12.00;99.90
58469;DHT22;44257;44.804;10.220;2022-11-11T03:03:25;12.00;99.90
58469;DHT22;44257;44.804;10.220;2022-11-11T03:06:09;12.00;99.90
58469;DHT22;44257;44.804;10.220;2022-11-11T03:08:54;12.00;99.90
58469;DHT22;44257;44.804;10.220;2022-11-11T03:11:38;12.00;99.90
58469;DHT22;44257;44.804;10.220;2022-11-11T03:14:23;12.10;99.90
58469;DHT22;44257;44.804;10.220;2022-11-11T03:17:08;12.10;99.90
58469;DHT22;44257;44.804;10.220;2022-11-11T03:20:17;12.10;99.90
58469;DHT22;44257;44.804;10.220;2022-11-11T03:23:21;12.20;99.90
58469;DHT22;44257;44.804;10.220;2022-11-11T03:26:05;12.20;99.90
58469;DHT22;44257;44.804;10.220;2022-11-11T03:28:52;12.20;99.90
58469;DHT22;44257;44.804;10.220;2022-11-11T03:31:36;12.20;99.90
58469;DHT22;44257;44.804;10.220;2022-11-11T03:34:20;12.20;99.90
58469;DHT22;44257;44.804;10.220;2022-11-11T03:37:07;12.20;99.90
58469;DHT22;44257;44.804;10.220;2022-11-11T03:40:10;12.30;99.90
58469;DHT22;44257;44.804;10.220;2022-11-11T03:42:55;12.20;99.90
58469;DHT22;44257;44.804;10.220;2022-11-11T03:45:40;12.30;99.90
58469;DHT22;44257;44.804;10.220;2022-11-11T03:48:26;12.30;99.90
58469;DHT22;44257;44.804;10.220;2022-11-11T03:51:11;12.30;99.90
58469;DHT22;44257;44.804;10.220;2022-11-11T03:53:56;12.30;99.90
58469;DHT22;44257;44.804;10.220;2022-11-11T03:56:40;12.30;99.90
58469;DHT22;44257;44.804;10.220;2022-11-11T03:59:24;12.30;99.90
58469;DHT22;44257;44.804;10.220;2022-11-11T04:02:11;12.30;99.90
58469;DHT22;44257;44.804;10.220;2022-11-11T04:05:19;12.40;99.90
58469;DHT22;44257;44.804;10.220;2022-11-11T04:08:22;12.40;99.90
58469;DHT22;44257;44.804;10.220;2022-11-11T04:11:40;12.30;99.90
58469;DHT22;44257;44.804;10.220;2022-11-11T04:14:25;12.30;99.90
58469;DHT22;44257;44.804;10.220;2022-11-11T04:17:28;12.30;99.90
58469;DHT22;44257;44.804;10.220;2022-11-11T04:20:12;12.30;99.90
58469;DHT22;44257;44.804;10.220;2022-11-11T04:23:15;12.30;99.90
58469;DHT22;44257;44.804;10.220;2022-11-11T04:26:00;12.30;99.90
58469;DHT22;44257;44.804;10.220;2022-11-11T04:28:44;12.20;99.90
58469;DHT22;44257;44.804;10.220;2022-11-11T04:31:47;12.30;99.90
58469;DHT22;44257;44.804;10.220;2022-11-11T04:34:52;12.30;99.90
58469;DHT22;44257;44.804;10.220;2022-11-11T04:37:47;12.30;99.90
58469;DHT22;44257;44.804;10.220;2022-11-11T04:40:32;12.30;99.90
58469;DHT22;44257;44.804;10.220;2022-11-11T04:43:35;12.30;99.90
58469;DHT22;44257;44.804;10.220;2022-11-11T04:46:40;12.30;99.90
58469;DHT22;44257;44.804;10.220;2022-11-11T04:49:24;12.30;99.90
58469;DHT22;44257;44.804;10.220;2022-11-11T04:52:09;12.30;99.90
58469;DHT22;44257;44.804;10.220;2022-11-11T04:55:12;12.30;99.90
58469;DHT22;44257;44.804;10.220;2022-11-11T04:58:18;12.30;99.90
58469;DHT22;44257;44.804;10.220;2022-11-11T05:01:02;12.40;99.90
58469;DHT22;44257;44.804;10.220;2022-11-11T05:03:47;12.30;99.90
58469;DHT22;44257;44.804;10.220;2022-11-11T05:06:31;12.30;99.90
58469;DHT22;44257;44.804;10.220;2022-11-11T05:09:53;12.30;99.90
58469;DHT22;44257;44.804;10.220;2022-11-11T05:12:38;12.30;99.90
58469;DHT22;44257;44.804;10.220;2022-11-11T05:15:22;12.30;99.90
58469;DHT22;44257;44.804;10.220;2022-11-11T05:18:26;12.20;99.90
58469;DHT22;44257;44.804;10.220;2022-11-11T05:21:30;12.20;99.90
58469;DHT22;44257;44.804;10.220;2022-11-11T05:24:14;12.20;99.90
58469;DHT22;44257;44.804;10.220;2022-11-11T05:27:18;12.20;99.90
58469;DHT22;44257;44.804;10.220;2022-11-11T05:30:05;12.20;99.90
58469;DHT22;44257;44.804;10.220;2022-11-11T05:32:50;12.20;99.90
58469;DHT22;44257;44.804;10.220;2022-11-11T05:35:34;12.20;99.90
58469;DHT22;44257;44.804;10.220;2022-11-11T05:38:19;12.20;99.90
58469;DHT22;44257;44.804;10.220;2022-11-11T05:41:05;12.10;99.90
58469;DHT22;44257;44.804;10.220;2022-11-11T05:43:49;12.10;99.90
58469;DHT22;44257;44.804;10.220;2022-11-11T05:46:34;12.00;99.90
58469;DHT22;44257;44.804;10.220;2022-11-11T05:49:19;11.90;99.90
58469;DHT22;44257;44.804;10.220;2022-11-11T05:52:04;11.80;99.90
58469;DHT22;44257;44.804;10.220;2022-11-11T05:54:48;11.70;99.90
58469;DHT22;44257;44.804;10.220;2022-11-11T05:57:33;11.60;99.90
58469;DHT22;44257;44.804;10.220;2022-11-11T06:00:17;11.60;99.90
58469;DHT22;44257;44.804;10.220;2022-11-11T06:03:03;11.50;99.90
58469;DHT22;44257;44.804;10.220;2022-11-11T06:05:49;11.50;99.90
58469;DHT22;44257;44.804;10.220;2022-11-11T06:08:33;11.50;99.90
58469;DHT22;44257;44.804;10.220;2022-11-11T06:11:18;11.60;99.90
58469;DHT22;44257;44.804;10.220;2022-11-11T06:14:02;11.50;99.90
58469;DHT22;44257;44.804;10.220;2022-11-11T06:16:47;11.50;99.90
58469;DHT22;44257;44.804;10.220;2022-11-11T06:19:32;11.40;99.90
58469;DHT22;44257;44.804;10.220;2022-11-11T06:22:17;11.50;99.90
58469;DHT22;44257;44.804;10.220;2022-11-11T06:25:22;11.50;99.90
58469;DHT22;44257;44.804;10.220;2022-11-11T06:28:25;11.60;99.90
58469;DHT22;44257;44.804;10.220;2022-11-11T06:31:12;11.60;99.90
58469;DHT22;44257;44.804;10.220;2022-11-11T06:33:57;11.50;99.90
58469;DHT22;44257;44.804;10.220;2022-11-11T06:36:41;11.50;99.90
58469;DHT22;44257;44.804;10.220;2022-11-11T06:39:25;11.50;99.90
58469;DHT22;44257;44.804;10.220;2022-11-11T06:42:09;11.50;99.90
58469;DHT22;44257;44.804;10.220;2022-11-11T06:44:54;11.50;99.90
58469;DHT22;44257;44.804;10.220;2022-11-11T06:47:38;11.50;99.90
58469;DHT22;44257;44.804;10.220;2022-11-11T06:50:22;11.50;99.90
58469;DHT22;44257;44.804;10.220;2022-11-11T06:53:07;11.50;99.90
58469;DHT22;44257;44.804;10.220;2022-11-11T06:55:52;11.50;99.90
58469;DHT22;44257;44.804;10.220;2022-11-11T06:58:36;11.50;99.90
58469;DHT22;44257;44.804;10.220;2022-11-11T07:01:21;11.50;99.90
58469;DHT22;44257;44.804;10.220;2022-11-11T07:04:05;11.60;99.90
58469;DHT22;44257;44.804;10.220;2022-11-11T07:06:50;11.60;99.90
58469;DHT22;44257;44.804;10.220;2022-11-11T07:09:34;11.70;99.90
58469;DHT22;44257;44.804;10.220;2022-11-11T07:12:19;11.70;99.90
58469;DHT22;44257;44.804;10.220;2022-11-11T07:15:03;11.80;99.90
58469;DHT22;44257;44.804;10.220;2022-11-11T07:17:48;11.70;99.90
58469;DHT22;44257;44.804;10.220;2022-11-11T07:20:33;11.70;99.90
58469;DHT22;44257;44.804;10.220;2022-11-11T07:23:17;11.70;99.90
58469;DHT22;44257;44.804;10.220;2022-11-11T07:26:05;11.70;99.90
58469;DHT22;44257;44.804;10.220;2022-11-11T07:28:49;11.70;99.90
58469;DHT22;44257;44.804;10.220;2022-11-11T07:31:34;11.70;99.90
58469;DHT22;44257;44.804;10.220;2022-11-11T07:34:18;11.70;99.90
58469;DHT22;44257;44.804;10.220;2022-11-11T07:37:03;11.70;99.90
58469;DHT22;44257;44.804;10.220;2022-11-11T07:39:48;11.80;99.90
58469;DHT22;44257;44.804;10.220;2022-11-11T07:42:35;11.80;99.90
58469;DHT22;44257;44.804;10.220;2022-11-11T07:45:20;11.80;99.90
58469;DHT22;44257;44.804;10.220;2022-11-11T07:48:06;11.80;99.90
58469;DHT22;44257;44.804;10.220;2022-11-11T07:50:51;11.80;99.90
58469;DHT22;44257;44.804;10.220;2022-11-11T07:53:37;11.80;99.90
58469;DHT22;44257;44.804;10.220;2022-11-11T07:56:22;11.90;99.90
58469;DHT22;44257;44.804;10.220;2022-11-11T07:59:06;11.90;99.90
58469;DHT22;44257;44.804;10.220;2022-11-11T08:01:51;12.00;99.90
58469;DHT22;44257;44.804;10.220;2022-11-11T08:04:36;12.10;99.90
58469;DHT22;44257;44.804;10.220;2022-11-11T08:07:21;12.10;99.90
58469;DHT22;44257;44.804;10.220;2022-11-11T08:10:05;12.20;99.90
58469;DHT22;44257;44.804;10.220;2022-11-11T08:12:53;12.40;99.90
58469;DHT22;44257;44.804;10.220;2022-11-11T08:15:56;12.40;99.90
58469;DHT22;44257;44.804;10.220;2022-11-11T08:18:41;12.60;99.90
58469;DHT22;44257;44.804;10.220;2022-11-11T08:21:25;12.60;99.90
58469;DHT22;44257;44.804;10.220;2022-11-11T08:24:10;12.70;99.90
58469;DHT22;44257;44.804;10.220;2022-11-11T08:26:55;12.70;99.90
58469;DHT22;44257;44.804;10.220;2022-11-11T08:29:39;12.80;99.90
58469;DHT22;44257;44.804;10.220;2022-11-11T08:32:24;12.80;99.90
58469;DHT22;44257;44.804;10.220;2022-11-11T08:35:09;12.90;99.90
58469;DHT22;44257;44.804;10.220;2022-11-11T08:37:54;13.00;99.90
58469;DHT22;44257;44.804;10.220;2022-11-11T08:40:38;13.00;99.90
58469;DHT22;44257;44.804;10.220;2022-11-11T08:43:22;13.10;99.90
58469;DHT22;44257;44.804;10.220;2022-11-11T08:46:08;13.10;99.90
58469;DHT22;44257;44.804;10.220;2022-11-11T08:48:55;13.20;99.90
58469;DHT22;44257;44.804;10.220;2022-11-11T08:51:39;13.20;99.90
58469;DHT22;44257;44.804;10.220;2022-11-11T08:54:24;13.30;99.90
58469;DHT22;44257;44.804;10.220;2022-11-11T08:57:08;13.30;99.90
58469;DHT22;44257;44.804;10.220;2022-11-11T08:59:53;13.20;99.90
58469;DHT22;44257;44.804;10.220;2022-11-11T09:02:37;13.20;99.90
58469;DHT22;44257;44.804;10.220;2022-11-11T09:05:21;13.30;99.90
58469;DHT22;44257;44.804;10.220;2022-11-11T09:08:07;13.30;99.90
58469;DHT22;44257;44.804;10.220;2022-11-11T09:10:51;13.30;99.90
58469;DHT22;44257;44.804;10.220;2022-11-11T09:13:35;13.40;99.90
58469;DHT22;44257;44.804;10.220;2022-11-11T09:16:19;13.60;99.90
58469;DHT22;44257;44.804;10.220;2022-11-11T09:19:04;13.70;99.90
58469;DHT22;44257;44.804;10.220;2022-11-11T09:21:50;13.70;99.90
58469;DHT22;44257;44.804;10.220;2022-11-11T09:24:36;13.80;99.90
58469;DHT22;44257;44.804;10.220;2022-11-11T09:27:20;13.80;99.90
58469;DHT22;44257;44.804;10.220;2022-11-11T09:30:05;13.80;99.90
58469;DHT22;44257;44.804;10.220;2022-11-11T09:32:49;14.00;99.90
58469;DHT22;44257;44.804;10.220;2022-11-11T09:35:34;14.10;99.90
58469;DHT22;44257;44.804;10.220;2022-11-11T09:38:19;14.20;99.90
58469;DHT22;44257;44.804;10.220;2022-11-11T09:41:11;14.30;99.90
58469;DHT22;44257;44.804;10.220;2022-11-11T09:43:59;14.30;99.90
58469;DHT22;44257;44.804;10.220;2022-11-11T09:46:53;14.30;99.90
58469;DHT22;44257;44.804;10.220;2022-11-11T09:55:32;14.40;99.90
58469;DHT22;44257;44.804;10.220;2022-11-11T09:58:22;14.40;99.90
58469;DHT22;44257;44.804;10.220;2022-11-11T10:01:12;14.50;99.90
58469;DHT22;44257;44.804;10.220;2022-11-11T10:04:43;14.50;99.90
58469;DHT22;44257;44.804;10.220;2022-11-11T10:07:25;14.50;99.90
58469;DHT22;44257;44.804;10.220;2022-11-11T10:10:29;14.50;99.90
58469;DHT22;44257;44.804;10.220;2022-11-11T10:13:33;14.60;99.90
58469;DHT22;44257;44.804;10.220;2022-11-11T10:22:18;14.70;99.90
58469;DHT22;44257;44.804;10.220;2022-11-11T10:28:00;14.90;99.90
58469;DHT22;44257;44.804;10.220;2022-11-11T10:30:48;15.00;99.90
58469;DHT22;44257;44.804;10.220;2022-11-11T10:34:00;15.00;99.90
58469;DHT22;44257;44.804;10.220;2022-11-11T10:36:52;15.20;99.90
58469;DHT22;44257;44.804;10.220;2022-11-11T10:40:02;15.20;99.90
58469;DHT22;44257;44.804;10.220;2022-11-11T10:42:48;15.10;99.90
58469;DHT22;44257;44.804;10.220;2022-11-11T10:45:45;15.10;99.90
58469;DHT22;44257;44.804;10.220;2022-11-11T10:51:38;15.20;99.90
58469;DHT22;44257;44.804;10.220;2022-11-11T10:54:49;15.20;99.90
58469;DHT22;44257;44.804;10.220;2022-11-11T11:00:20;15.30;99.90
58469;DHT22;44257;44.804;10.220;2022-11-11T11:03:22;15.30;99.90
58469;DHT22;44257;44.804;10.220;2022-11-11T11:09:00;15.20;99.90
58469;DHT22;44257;44.804;10.220;2022-11-11T11:11:57;15.20;99.90
58469;DHT22;44257;44.804;10.220;2022-11-11T11:14:46;15.10;99.90
58469;DHT22;44257;44.804;10.220;2022-11-11T11:17:39;15.10;99.90
58469;DHT22;44257;44.804;10.220;2022-11-11T11:20:25;15.20;99.90
58469;DHT22;44257;44.804;10.220;2022-11-11T11:23:14;15.40;99.90
58469;DHT22;44257;44.804;10.220;2022-11-11T11:26:17;15.50;99.90
58469;DHT22;44257;44.804;10.220;2022-11-11T11:29:01;15.50;99.90
58469;DHT22;44257;44.804;10.220;2022-11-11T11:31:46;15.70;99.90
58469;DHT22;44257;44.804;10.220;2022-11-11T11:37:27;15.80;99.90
58469;DHT22;44257;44.804;10.220;2022-11-11T11:40:11;15.80;99.90
58469;DHT22;44257;44.804;10.220;2022-11-11T11:42:57;15.80;99.90
58469;DHT22;44257;44.804;10.220;2022-11-11T11:45:41;15.80;99.90
58469;DHT22;44257;44.804;10.220;2022-11-11T11:51:50;15.80;99.90
58469;DHT22;44257;44.804;10.220;2022-11-11T12:00:42;16.30;99.90
58469;DHT22;44257;44.804;10.220;2022-11-11T12:06:54;16.60;99.90
58469;DHT22;44257;44.804;10.220;2022-11-11T12:37:56;17.80;99.90
58469;DHT22;44257;44.804;10.220;2022-11-11T12:58:39;18.60;99.90
58469;DHT22;44257;44.804;10.220;2022-11-11T13:04:34;18.80;99.90
58469;DHT22;44257;44.804;10.220;2022-11-11T13:17:12;18.60;99.90
58469;DHT22;44257;44.804;10.220;2022-11-11T13:20:15;18.50;99.90
58469;DHT22;44257;44.804;10.220;2022-11-11T13:23:02;18.50;99.90
58469;DHT22;44257;44.804;10.220;2022-11-11T13:25:49;18.40;99.90
58469;DHT22;44257;44.804;10.220;2022-11-11T13:28:38;18.20;99.90
58469;DHT22;44257;44.804;10.220;2022-11-11T13:31:30;18.10;99.90
58469;DHT22;44257;44.804;10.220;2022-11-11T13:34:18;18.00;99.90
58469;DHT22;44257;44.804;10.220;2022-11-11T13:37:05;17.90;99.90
58469;DHT22;44257;44.804;10.220;2022-11-11T13:39:50;17.90;99.90
58469;DHT22;44257;44.804;10.220;2022-11-11T13:42:47;17.80;99.90
58469;DHT22;44257;44.804;10.220;2022-11-11T13:45:34;17.80;99.90
58469;DHT22;44257;44.804;10.220;2022-11-11T13:51:40;17.60;99.90
58469;DHT22;44257;44.804;10.220;2022-11-11T13:54:29;17.50;99.90
58469;DHT22;44257;44.804;10.220;2022-11-11T13:57:23;17.50;99.90
58469;DHT22;44257;44.804;10.220;2022-11-11T14:12:44;17.20;99.90
58469;DHT22;44257;44.804;10.220;2022-11-11T14:15:51;17.20;99.90
58469;DHT22;44257;44.804;10.220;2022-11-11T14:18:42;17.10;99.90
58469;DHT22;44257;44.804;10.220;2022-11-11T14:21:42;17.00;99.90
58469;DHT22;44257;44.804;10.220;2022-11-11T14:24:43;17.00;99.90
58469;DHT22;44257;44.804;10.220;2022-11-11T14:27:32;17.00;99.90
58469;DHT22;44257;44.804;10.220;2022-11-11T14:30:34;16.90;99.90
58469;DHT22;44257;44.804;10.220;2022-11-11T14:36:38;16.90;99.90
58469;DHT22;44257;44.804;10.220;2022-11-11T14:39:43;16.80;99.90
58469;DHT22;44257;44.804;10.220;2022-11-11T14:54:46;16.50;99.90
58469;DHT22;44257;44.804;10.220;2022-11-11T15:01:02;16.40;99.90
58469;DHT22;44257;44.804;10.220;2022-11-11T15:03:52;16.40;99.90
58469;DHT22;44257;44.804;10.220;2022-11-11T15:06:58;16.20;99.90
58469;DHT22;44257;44.804;10.220;2022-11-11T15:13:32;16.00;99.90
58469;DHT22;44257;44.804;10.220;2022-11-11T15:15:59;15.90;99.90
58469;DHT22;44257;44.804;10.220;2022-11-11T15:36:57;15.40;99.90
58469;DHT22;44257;44.804;10.220;2022-11-11T15:39:45;15.30;99.90
58469;DHT22;44257;44.804;10.220;2022-11-11T15:42:34;15.20;99.90
58469;DHT22;44257;44.804;10.220;2022-11-11T15:45:27;15.10;99.90
58469;DHT22;44257;44.804;10.220;2022-11-11T15:48:21;15.00;99.90
58469;DHT22;44257;44.804;10.220;2022-11-11T15:51:37;14.90;99.90
58469;DHT22;44257;44.804;10.220;2022-11-11T15:54:21;14.80;99.90
58469;DHT22;44257;44.804;10.220;2022-11-11T15:57:22;14.60;99.90
58469;DHT22;44257;44.804;10.220;2022-11-11T16:00:39;14.50;99.90
58469;DHT22;44257;44.804;10.220;2022-11-11T16:03:30;14.40;99.90
58469;DHT22;44257;44.804;10.220;2022-11-11T16:06:16;14.30;99.90
58469;DHT22;44257;44.804;10.220;2022-11-11T16:09:02;14.20;99.90
58469;DHT22;44257;44.804;10.220;2022-11-11T16:11:46;14.10;99.90
58469;DHT22;44257;44.804;10.220;2022-11-11T16:14:38;14.00;99.90
58469;DHT22;44257;44.804;10.220;2022-11-11T16:17:29;13.90;99.90
58469;DHT22;44257;44.804;10.220;2022-11-11T16:20:21;13.90;99.90
58469;DHT22;44257;44.804;10.220;2022-11-11T16:23:08;13.80;99.90
58469;DHT22;44257;44.804;10.220;2022-11-11T16:25:57;13.80;99.90
58469;DHT22;44257;44.804;10.220;2022-11-11T16:28:47;13.70;99.90
58469;DHT22;44257;44.804;10.220;2022-11-11T16:31:38;13.70;99.90
58469;DHT22;44257;44.804;10.220;2022-11-11T16:34:32;13.60;99.90
58469;DHT22;44257;44.804;10.220;2022-11-11T16:37:19;13.60;99.90
58469;DHT22;44257;44.804;10.220;2022-11-11T16:43:26;13.40;99.90
58469;DHT22;44257;44.804;10.220;2022-11-11T16:46:13;13.30;99.90
58469;DHT22;44257;44.804;10.220;2022-11-11T16:49:00;13.30;99.90
58469;DHT22;44257;44.804;10.220;2022-11-11T16:51:46;13.20;99.90
58469;DHT22;44257;44.804;10.220;2022-11-11T16:54:35;13.10;99.90
58469;DHT22;44257;44.804;10.220;2022-11-11T16:57:31;13.10;99.90
58469;DHT22;44257;44.804;10.220;2022-11-11T17:00:18;13.10;99.90
58469;DHT22;44257;44.804;10.220;2022-11-11T17:03:21;13.00;99.90
58469;DHT22;44257;44.804;10.220;2022-11-11T17:06:08;13.00;99.90
58469;DHT22;44257;44.804;10.220;2022-11-11T17:08:53;12.90;99.90
58469;DHT22;44257;44.804;10.220;2022-11-11T17:14:23;12.70;99.90
58469;DHT22;44257;44.804;10.220;2022-11-11T17:17:09;12.60;99.90
58469;DHT22;44257;44.804;10.220;2022-11-11T17:19:55;12.50;99.90
58469;DHT22;44257;44.804;10.220;2022-11-11T17:23:07;12.40;99.90
58469;DHT22;44257;44.804;10.220;2022-11-11T17:25:55;12.30;99.90
58469;DHT22;44257;44.804;10.220;2022-11-11T17:28:40;12.20;99.90
58469;DHT22;44257;44.804;10.220;2022-11-11T17:31:25;12.10;99.90
58469;DHT22;44257;44.804;10.220;2022-11-11T17:34:10;12.10;99.90
58469;DHT22;44257;44.804;10.220;2022-11-11T17:36:54;12.00;99.90
58469;DHT22;44257;44.804;10.220;2022-11-11T17:39:39;12.00;99.90
58469;DHT22;44257;44.804;10.220;2022-11-11T17:42:28;12.00;99.90
58469;DHT22;44257;44.804;10.220;2022-11-11T17:45:12;11.90;99.90
58469;DHT22;44257;44.804;10.220;2022-11-11T17:47:57;11.90;99.90
58469;DHT22;44257;44.804;10.220;2022-11-11T17:50:41;11.90;99.90
58469;DHT22;44257;44.804;10.220;2022-11-11T17:53:26;11.80;99.90
58469;DHT22;44257;44.804;10.220;2022-11-11T17:56:11;11.80;99.90
58469;DHT22;44257;44.804;10.220;2022-11-11T17:58:56;11.80;99.90
58469;DHT22;44257;44.804;10.220;2022-11-11T18:01:41;11.80;99.90
58469;DHT22;44257;44.804;10.220;2022-11-11T18:04:26;11.70;99.90
58469;DHT22;44257;44.804;10.220;2022-11-11T18:07:11;11.60;99.90
58469;DHT22;44257;44.804;10.220;2022-11-11T18:09:55;11.50;99.90
58469;DHT22;44257;44.804;10.220;2022-11-11T18:12:40;11.40;99.90
58469;DHT22;44257;44.804;10.220;2022-11-11T18:15:24;11.30;99.90
58469;DHT22;44257;44.804;10.220;2022-11-11T18:18:10;11.20;99.90
58469;DHT22;44257;44.804;10.220;2022-11-11T18:21:04;11.10;99.90
58469;DHT22;44257;44.804;10.220;2022-11-11T18:23:49;11.00;99.90
58469;DHT22;44257;44.804;10.220;2022-11-11T18:26:34;11.00;99.90
58469;DHT22;44257;44.804;10.220;2022-11-11T18:29:19;11.00;99.90
58469;DHT22;44257;44.804;10.220;2022-11-11T18:32:03;10.90;99.90
58469;DHT22;44257;44.804;10.220;2022-11-11T18:34:48;10.90;99.90
58469;DHT22;44257;44.804;10.220;2022-11-11T18:37:32;10.90;99.90
58469;DHT22;44257;44.804;10.220;2022-11-11T18:40:19;10.90;99.90
58469;DHT22;44257;44.804;10.220;2022-11-11T18:43:04;10.80;99.90
58469;DHT22;44257;44.804;10.220;2022-11-11T18:45:49;10.80;99.90
58469;DHT22;44257;44.804;10.220;2022-11-11T18:48:34;10.90;99.90
58469;DHT22;44257;44.804;10.220;2022-11-11T18:51:18;10.80;99.90
58469;DHT22;44257;44.804;10.220;2022-11-11T18:54:04;10.70;99.90
58469;DHT22;44257;44.804;10.220;2022-11-11T18:56:48;10.70;99.90
58469;DHT22;44257;44.804;10.220;2022-11-11T18:59:33;10.70;99.90
58469;DHT22;44257;44.804;10.220;2022-11-11T19:02:18;10.60;99.90
58469;DHT22;44257;44.804;10.220;2022-11-11T19:05:02;10.50;99.90
58469;DHT22;44257;44.804;10.220;2022-11-11T19:07:47;10.40;99.90
58469;DHT22;44257;44.804;10.220;2022-11-11T19:10:31;10.40;99.90
58469;DHT22;44257;44.804;10.220;2022-11-11T19:13:15;10.30;99.90
58469;DHT22;44257;44.804;10.220;2022-11-11T19:16:11;10.30;99.90
58469;DHT22;44257;44.804;10.220;2022-11-11T19:18:57;10.30;99.90
58469;DHT22;44257;44.804;10.220;2022-11-11T19:21:42;10.40;99.90
58469;DHT22;44257;44.804;10.220;2022-11-11T19:24:27;10.40;99.90
58469;DHT22;44257;44.804;10.220;2022-11-11T19:27:11;10.30;99.90
58469;DHT22;44257;44.804;10.220;2022-11-11T19:29:55;10.30;99.90
58469;DHT22;44257;44.804;10.220;2022-11-11T19:32:40;10.40;99.90
58469;DHT22;44257;44.804;10.220;2022-11-11T19:35:25;10.40;99.90
58469;DHT22;44257;44.804;10.220;2022-11-11T19:38:09;10.30;99.90
58469;DHT22;44257;44.804;10.220;2022-11-11T19:40:54;10.30;99.90
58469;DHT22;44257;44.804;10.220;2022-11-11T19:43:39;10.30;99.90
58469;DHT22;44257;44.804;10.220;2022-11-11T19:46:25;10.30;99.90
58469;DHT22;44257;44.804;10.220;2022-11-11T19:49:10;10.40;99.90
58469;DHT22;44257;44.804;10.220;2022-11-11T19:51:56;10.40;99.90
58469;DHT22;44257;44.804;10.220;2022-11-11T19:54:41;10.40;99.90
58469;DHT22;44257;44.804;10.220;2022-11-11T19:57:25;10.40;99.90
58469;DHT22;44257;44.804;10.220;2022-11-11T20:00:10;10.30;99.90
58469;DHT22;44257;44.804;10.220;2022-11-11T20:02:54;10.30;99.90
58469;DHT22;44257;44.804;10.220;2022-11-11T20:05:39;10.30;99.90
58469;DHT22;44257;44.804;10.220;2022-11-11T20:08:24;10.20;99.90
58469;DHT22;44257;44.804;10.220;2022-11-11T20:11:09;10.10;99.90
58469;DHT22;44257;44.804;10.220;2022-11-11T20:13:54;10.00;99.90